Time;durP1;ratioP1;P1;durP2;ratioP2;P2;SDS_P1;SDS_P2;PMS_P1;PMS_P2;Temp;Humidity;BMP_temperature;BMP_pressure;BME280_temperature;BME280_humidity;BME280_pressure;Samples;Min_cycle;Max_cycle;Signal;HPM_P1;HPM_P2
2022/10/23 00:01:38;;;;;;;18.40;15.20;;;14.60;99.90;;;;;;5089147;28;20416;-73
2022/10/23 00:04:13;;;;;;;16.50;14.90;;;14.60;99.90;;;;;;5094037;28;20173;-69
2022/10/23 00:06:39;;;;;;;16.53;14.70;;;14.60;99.90;;;;;;5092877;28;20390;-70
2022/10/23 00:09:09;;;;;;;16.73;15.10;;;14.60;99.90;;;;;;5093967;28;20423;-70
2022/10/23 00:11:35;;;;;;;17.57;14.40;;;14.60;99.90;;;;;;5071206;28;20400;-73
2022/10/23 00:14:03;;;;;;;16.57;15.07;;;14.60;99.90;;;;;;5093281;28;20404;-70
2022/10/23 00:16:29;;;;;;;16.33;14.70;;;14.60;99.90;;;;;;5093137;28;20452;-70
2022/10/23 00:18:55;;;;;;;16.17;14.40;;;14.60;99.90;;;;;;5092884;28;21020;-70
2022/10/23 00:21:22;;;;;;;16.30;14.70;;;14.60;99.90;;;;;;5090152;28;20197;-70
2022/10/23 00:23:47;;;;;;;15.13;13.67;;;14.60;99.90;;;;;;5091873;28;20438;-70
2022/10/23 00:26:14;;;;;;;15.47;13.97;;;14.60;99.90;;;;;;5093137;28;20400;-70
2022/10/23 00:28:43;;;;;;;15.20;13.67;;;14.50;99.90;;;;;;5086021;28;20185;-70
2022/10/23 00:31:10;;;;;;;15.33;14.03;;;14.60;99.90;;;;;;5088305;28;20425;-70
2022/10/23 00:33:36;;;;;;;16.27;14.53;;;14.50;99.90;;;;;;5071875;28;20410;-74
2022/10/23 00:36:08;;;;;;;16.83;14.00;;;14.40;99.90;;;;;;5072641;28;20506;-70
2022/10/23 00:38:34;;;;;;;15.37;13.50;;;14.40;99.90;;;;;;5072517;28;20451;-69
2022/10/23 00:41:01;;;;;;;14.57;12.77;;;14.40;99.90;;;;;;5036923;28;20425;-70
2022/10/23 00:43:28;;;;;;;13.37;12.23;;;14.30;99.90;;;;;;5075455;28;20419;-70
2022/10/23 00:45:55;;;;;;;17.03;12.80;;;14.30;99.90;;;;;;5071602;28;20438;-70
2022/10/23 00:48:21;;;;;;;15.40;13.83;;;14.40;99.90;;;;;;5072511;28;20431;-70
2022/10/23 00:50:48;;;;;;;15.97;14.33;;;14.40;99.90;;;;;;5071772;28;20444;-70
2022/10/23 00:53:15;;;;;;;16.33;14.73;;;14.30;99.90;;;;;;5087481;28;20415;-70
2022/10/23 00:55:45;;;;;;;18.67;15.60;;;14.30;99.90;;;;;;5090941;28;20403;-70
2022/10/23 00:58:16;;;;;;;16.70;14.90;;;14.40;99.90;;;;;;5092491;28;20418;-68
2022/10/23 01:00:44;;;;;;;19.50;14.93;;;14.30;99.90;;;;;;5073908;28;20407;-70
2022/10/23 01:03:10;;;;;;;16.97;15.17;;;14.30;99.90;;;;;;5087961;28;20414;-69
2022/10/23 01:06:03;;;;;;;17.33;15.70;;;14.40;99.90;;;;;;5089812;28;20410;-73
2022/10/23 01:08:51;;;;;;;15.57;13.97;;;14.30;99.90;;;;;;5057051;28;20192;-70
2022/10/23 01:11:31;;;;;;;15.67;14.03;;;14.30;99.90;;;;;;5092428;28;20402;-69
2022/10/23 01:14:10;;;;;;;15.80;14.13;;;14.40;99.90;;;;;;5091302;28;20409;-69
2022/10/23 01:16:49;;;;;;;14.97;13.43;;;14.30;99.90;;;;;;5073611;28;20469;-73
2022/10/23 01:19:30;;;;;;;14.57;13.17;;;14.30;99.90;;;;;;5092293;28;20564;-69
2022/10/23 01:22:25;;;;;;;11.87;10.73;;;14.30;99.90;;;;;;5091959;28;21291;-69
2022/10/23 01:24:58;;;;;;;15.40;11.73;;;14.30;99.90;;;;;;5073531;28;20406;-69
2022/10/23 01:27:28;;;;;;;13.27;12.07;;;14.20;99.90;;;;;;5092440;28;20401;-69
2022/10/23 01:30:02;;;;;;;13.30;12.07;;;14.20;99.90;;;;;;5091695;28;20402;-69
2022/10/23 01:32:43;;;;;;;12.60;11.40;;;14.20;99.90;;;;;;5092387;28;20415;-69
2022/10/23 01:35:17;;;;;;;12.23;11.10;;;14.20;99.90;;;;;;5092485;28;20409;-70
2022/10/23 01:37:48;;;;;;;12.67;11.37;;;14.20;99.90;;;;;;5091461;28;20975;-69
2022/10/23 01:40:27;;;;;;;10.87;9.97;;;14.20;99.90;;;;;;5092279;28;20438;-69
2022/10/23 01:42:59;;;;;;;11.57;10.53;;;14.20;99.90;;;;;;5091527;28;20396;-69
2022/10/23 01:45:39;;;;;;;10.33;9.53;;;14.20;99.90;;;;;;5092311;28;20401;-69
2022/10/23 01:48:08;;;;;;;12.03;10.73;;;14.20;99.90;;;;;;5091863;28;20420;-69
2022/10/23 01:50:35;;;;;;;10.43;9.53;;;14.20;99.90;;;;;;5092244;28;20802;-69
2022/10/23 01:53:03;;;;;;;11.10;10.10;;;14.20;99.90;;;;;;5073421;28;20410;-70
2022/10/23 01:55:31;;;;;;;10.80;9.80;;;14.20;99.90;;;;;;5092115;28;20419;-69
2022/10/23 01:57:59;;;;;;;10.87;9.77;;;14.10;99.90;;;;;;5073222;28;20414;-69
2022/10/23 02:00:25;;;;;;;11.20;10.03;;;14.10;99.90;;;;;;5092341;28;20454;-69
2022/10/23 02:02:53;;;;;;;10.80;9.80;;;14.10;99.90;;;;;;5091318;28;20440;-70
2022/10/23 02:05:27;;;;;;;11.77;10.63;;;14.10;99.90;;;;;;5092412;28;20413;-69
2022/10/23 02:07:54;;;;;;;11.63;10.20;;;14.10;99.90;;;;;;5093397;28;20401;-70
2022/10/23 02:10:20;;;;;;;11.30;10.00;;;14.10;99.90;;;;;;5096116;28;20409;-69
2022/10/23 02:13:07;;;;;;;11.60;10.60;;;14.10;99.90;;;;;;5095240;28;20398;-69
2022/10/23 02:15:39;;;;;;;11.10;10.20;;;14.10;99.90;;;;;;5096112;28;20405;-69
2022/10/23 02:18:34;;;;;;;11.73;10.63;;;14.10;99.90;;;;;;5077246;28;20517;-69
2022/10/23 02:21:06;;;;;;;10.23;9.20;;;14.00;99.90;;;;;;5095169;28;20414;-70
2022/10/23 02:23:58;;;;;;;12.03;9.63;;;14.00;99.90;;;;;;5095729;28;20407;-69
2022/10/23 02:26:30;;;;;;;15.37;11.27;;;14.00;99.90;;;;;;5094912;28;20426;-69
2022/10/23 02:29:09;;;;;;;12.27;11.03;;;14.00;99.90;;;;;;5042735;28;20803;-69
2022/10/23 02:31:35;;;;;;;14.70;11.50;;;14.00;99.90;;;;;;5095499;28;20419;-69
2022/10/23 02:34:01;;;;;;;11.83;10.80;;;14.00;99.90;;;;;;5076672;28;20410;-69
2022/10/23 02:36:27;;;;;;;17.00;11.13;;;14.00;99.90;;;;;;5095634;28;20176;-69
2022/10/23 02:38:53;;;;;;;11.17;10.10;;;14.10;99.90;;;;;;5094688;28;20450;-70
2022/10/23 02:41:49;;;;;;;11.50;10.40;;;14.10;99.90;;;;;;5095554;28;20177;-69
2022/10/23 02:44:38;;;;;;;11.90;10.70;;;14.00;99.90;;;;;;5095602;28;20168;-69
2022/10/23 02:47:22;;;;;;;11.80;10.60;;;14.00;99.90;;;;;;5094738;28;20629;-69
2022/10/23 02:50:16;;;;;;;13.47;11.97;;;14.00;99.90;;;;;;5094377;28;20893;-69
2022/10/23 02:53:09;;;;;;;14.93;12.90;;;14.00;99.90;;;;;;5095277;28;20473;-74
2022/10/23 02:56:02;;;;;;;14.00;11.17;;;14.10;99.90;;;;;;5095323;28;20879;-69
2022/10/23 02:58:57;;;;;;;12.83;10.73;;;14.00;99.90;;;;;;5095183;28;20430;-69
2022/10/23 03:01:28;;;;;;;11.60;10.50;;;14.00;99.90;;;;;;5042924;28;20504;-69
2022/10/23 03:03:57;;;;;;;11.77;10.77;;;14.10;99.90;;;;;;5094349;28;20387;-69
2022/10/23 03:06:24;;;;;;;12.00;10.70;;;14.00;99.90;;;;;;5095017;28;20479;-69
2022/10/23 03:09:03;;;;;;;11.73;10.83;;;14.00;99.90;;;;;;5094197;28;20454;-70
2022/10/23 03:11:29;;;;;;;10.97;9.93;;;14.00;99.90;;;;;;5095036;28;20402;-69
2022/10/23 03:13:55;;;;;;;11.47;9.90;;;14.00;99.90;;;;;;5094121;28;20414;-70
2022/10/23 03:16:20;;;;;;;12.23;11.20;;;14.00;99.90;;;;;;5094597;28;20218;-69
2022/10/23 03:18:46;;;;;;;10.80;9.77;;;14.00;99.90;;;;;;5093158;28;20207;-73
2022/10/23 03:21:12;;;;;;;12.80;10.50;;;14.00;99.90;;;;;;5094956;28;20512;-69
2022/10/23 03:23:37;;;;;;;12.60;10.33;;;14.00;99.90;;;;;;5094482;28;20172;-69
2022/10/23 03:26:03;;;;;;;11.40;10.30;;;13.90;99.90;;;;;;5093801;28;20176;-69
2022/10/23 03:28:29;;;;;;;11.70;10.63;;;13.90;99.90;;;;;;5094550;28;20534;-69
2022/10/23 03:30:55;;;;;;;11.57;10.43;;;13.90;99.90;;;;;;5093717;28;20548;-70
2022/10/23 03:33:21;;;;;;;12.00;10.70;;;13.90;99.90;;;;;;5094886;28;20271;-69
2022/10/23 03:35:47;;;;;;;11.77;10.77;;;13.90;99.90;;;;;;5093701;28;20175;-73
2022/10/23 03:38:13;;;;;;;14.10;10.40;;;13.80;99.90;;;;;;5094384;28;20398;-69
2022/10/23 03:40:39;;;;;;;10.27;9.37;;;13.90;99.90;;;;;;5094137;28;20424;-69
2022/10/23 03:43:05;;;;;;;10.53;9.50;;;13.80;99.90;;;;;;5093553;28;20181;-69
2022/10/23 03:45:31;;;;;;;10.47;9.50;;;13.90;99.90;;;;;;5076179;28;20275;-69
2022/10/23 03:47:57;;;;;;;11.60;10.03;;;13.90;99.90;;;;;;5093573;28;20433;-70
2022/10/23 03:50:23;;;;;;;11.60;9.77;;;13.80;99.90;;;;;;5094223;28;20411;-69
2022/10/23 03:52:49;;;;;;;14.47;9.37;;;13.80;99.90;;;;;;5093566;28;20490;-73
2022/10/23 03:55:15;;;;;;;11.53;10.30;;;13.80;99.90;;;;;;5094163;28;20417;-69
2022/10/23 03:57:40;;;;;;;10.77;9.60;;;13.80;99.90;;;;;;5094037;28;20634;-69
2022/10/23 04:00:07;;;;;;;11.10;9.97;;;13.70;99.90;;;;;;5093163;28;20461;-69
2022/10/23 04:02:33;;;;;;;10.80;9.80;;;13.70;99.90;;;;;;5094315;28;20187;-69
2022/10/23 04:04:59;;;;;;;9.67;8.77;;;13.70;99.90;;;;;;5093113;28;20409;-69
2022/10/23 04:07:24;;;;;;;9.67;8.77;;;13.70;99.90;;;;;;5093864;28;20253;-70
2022/10/23 04:09:50;;;;;;;10.27;9.27;;;13.70;99.90;;;;;;5093375;28;20180;-73
2022/10/23 04:12:16;;;;;;;9.60;8.77;;;13.80;99.90;;;;;;5093535;28;20194;-70
2022/10/23 04:14:42;;;;;;;10.03;9.23;;;13.80;99.90;;;;;;5093772;28;20236;-69
2022/10/23 04:17:07;;;;;;;9.23;8.40;;;13.80;99.90;;;;;;5092687;28;20465;-69
2022/10/23 04:19:33;;;;;;;8.80;8.10;;;13.90;99.90;;;;;;5093618;28;20211;-69
2022/10/23 04:21:59;;;;;;;8.40;7.77;;;13.90;99.90;;;;;;5092783;28;20185;-70
2022/10/23 04:24:25;;;;;;;10.43;8.63;;;13.90;99.90;;;;;;5093872;28;20179;-70
2022/10/23 04:26:51;;;;;;;9.17;8.33;;;13.90;99.90;;;;;;5092849;28;20187;-74
2022/10/23 04:29:17;;;;;;;10.37;8.80;;;13.90;99.90;;;;;;5093691;28;20417;-69
2022/10/23 04:31:43;;;;;;;10.50;9.50;;;13.90;99.90;;;;;;5093289;28;20410;-69
2022/10/23 04:34:08;;;;;;;9.67;8.67;;;13.90;99.90;;;;;;5092622;28;20245;-69
2022/10/23 04:36:34;;;;;;;9.23;8.33;;;14.00;99.90;;;;;;5093341;28;20538;-69
2022/10/23 04:39:00;;;;;;;9.50;8.60;;;14.00;99.90;;;;;;5092418;28;20651;-69
2022/10/23 04:41:26;;;;;;;10.57;9.67;;;14.00;99.90;;;;;;5093221;28;20269;-69
2022/10/23 04:43:51;;;;;;;9.93;8.93;;;14.10;99.90;;;;;;5092286;28;20629;-73
2022/10/23 04:46:17;;;;;;;10.63;9.53;;;14.00;99.90;;;;;;5092962;28;20187;-69
2022/10/23 04:48:43;;;;;;;10.30;9.40;;;13.90;99.90;;;;;;5093120;28;20178;-69
2022/10/23 04:51:09;;;;;;;10.00;9.20;;;14.10;99.90;;;;;;5092234;28;20374;-69
2022/10/23 04:53:34;;;;;;;10.40;9.57;;;14.00;99.90;;;;;;5093005;28;20182;-69
2022/10/23 04:56:01;;;;;;;9.27;8.50;;;13.90;99.90;;;;;;5023180;28;20418;-70
2022/10/23 04:58:28;;;;;;;9.27;8.57;;;14.00;99.90;;;;;;5092797;28;20550;-70
2022/10/23 05:00:54;;;;;;;9.43;8.63;;;13.90;99.90;;;;;;5092011;28;20421;-70
2022/10/23 05:03:21;;;;;;;9.47;8.60;;;13.90;99.90;;;;;;5074328;28;20458;-69
2022/10/23 05:05:47;;;;;;;12.10;9.00;;;14.00;99.90;;;;;;5092790;28;20566;-69
2022/10/23 05:08:13;;;;;;;8.70;7.90;;;14.00;99.90;;;;;;5092027;28;20930;-69
2022/10/23 05:10:40;;;;;;;9.03;8.30;;;14.00;99.90;;;;;;5092701;28;20203;-69
2022/10/23 05:13:06;;;;;;;10.10;9.00;;;13.90;99.90;;;;;;5091145;28;20429;-69
2022/10/23 05:15:32;;;;;;;9.33;8.40;;;13.90;99.90;;;;;;5092336;28;20417;-69
2022/10/23 05:18:03;;;;;;;9.10;8.27;;;14.00;99.90;;;;;;5091819;28;20466;-70
2022/10/23 05:20:32;;;;;;;9.60;8.80;;;13.90;99.90;;;;;;5092316;28;21032;-69
2022/10/23 05:22:59;;;;;;;10.20;8.57;;;13.90;99.90;;;;;;5091728;28;20420;-69
2022/10/23 05:25:25;;;;;;;8.60;7.83;;;13.90;99.90;;;;;;5092717;28;20402;-70
2022/10/23 05:27:51;;;;;;;11.47;10.27;;;13.90;99.90;;;;;;5074446;28;20402;-74
2022/10/23 05:30:17;;;;;;;10.60;9.70;;;13.90;99.90;;;;;;5092237;28;20413;-69
2022/10/23 05:32:43;;;;;;;12.57;9.47;;;13.90;99.90;;;;;;5092422;28;20484;-69
2022/10/23 05:35:13;;;;;;;8.90;8.20;;;13.90;99.90;;;;;;5091626;28;20183;-69
2022/10/23 05:37:42;;;;;;;8.73;8.03;;;14.00;99.90;;;;;;5092352;28;20479;-69
2022/10/23 05:40:08;;;;;;;9.37;8.47;;;14.10;99.90;;;;;;5091492;28;20469;-69
2022/10/23 05:42:34;;;;;;;8.60;7.80;;;14.10;99.90;;;;;;5091553;28;20417;-69
2022/10/23 05:45:00;;;;;;;10.00;9.30;;;14.00;99.90;;;;;;5091507;28;20497;-70
2022/10/23 05:47:25;;;;;;;11.53;8.70;;;14.10;99.90;;;;;;5092451;28;20183;-69
2022/10/23 05:49:51;;;;;;;9.30;8.43;;;14.20;99.90;;;;;;5092336;28;20227;-69
2022/10/23 05:52:19;;;;;;;9.70;8.73;;;14.10;99.90;;;;;;5091169;28;20692;-69
2022/10/23 05:54:44;;;;;;;12.70;8.20;;;14.10;99.90;;;;;;5092315;28;20179;-69
2022/10/23 05:57:10;;;;;;;8.73;7.97;;;14.10;99.90;;;;;;5091398;28;20475;-69
2022/10/23 05:59:36;;;;;;;8.83;7.90;;;14.10;99.90;;;;;;5092040;28;20483;-69
2022/10/23 06:02:02;;;;;;;9.40;8.70;;;14.10;99.90;;;;;;5091114;28;20179;-69
2022/10/23 06:04:27;;;;;;;8.80;8.10;;;14.00;99.90;;;;;;5092192;28;20207;-69
2022/10/23 06:06:53;;;;;;;9.77;8.87;;;14.00;99.90;;;;;;5073902;28;20188;-73
2022/10/23 06:09:19;;;;;;;9.53;8.30;;;14.00;99.90;;;;;;5076224;28;20181;-69
2022/10/23 06:11:44;;;;;;;9.60;8.77;;;14.00;99.90;;;;;;5071867;28;20191;-69
2022/10/23 06:14:10;;;;;;;9.70;8.80;;;13.90;99.90;;;;;;5071053;28;20640;-69
2022/10/23 06:16:36;;;;;;;10.23;9.27;;;13.90;99.90;;;;;;5071440;28;20235;-69
2022/10/23 06:19:02;;;;;;;9.23;8.43;;;13.80;99.90;;;;;;5070840;28;20215;-70
2022/10/23 06:21:27;;;;;;;9.47;8.67;;;13.70;99.90;;;;;;5071773;28;20188;-69
2022/10/23 06:23:54;;;;;;;8.93;8.20;;;13.70;99.90;;;;;;5071724;28;20643;-70
2022/10/23 06:26:20;;;;;;;13.63;10.50;;;13.80;99.90;;;;;;5071104;28;20173;-69
2022/10/23 06:28:45;;;;;;;11.23;9.00;;;13.80;99.90;;;;;;5071686;28;20460;-69
2022/10/23 06:31:15;;;;;;;9.97;9.17;;;13.90;99.90;;;;;;5052902;28;20187;-69
2022/10/23 06:33:44;;;;;;;9.67;8.77;;;13.90;99.90;;;;;;5053876;28;20200;-69
2022/10/23 06:36:10;;;;;;;9.43;8.53;;;13.90;99.90;;;;;;5070773;28;20414;-69
2022/10/23 06:38:39;;;;;;;9.27;8.57;;;13.90;99.90;;;;;;5053413;28;20468;-69
2022/10/23 06:41:07;;;;;;;9.93;9.13;;;14.00;99.90;;;;;;5070831;28;20187;-72
2022/10/23 06:43:33;;;;;;;8.60;8.00;;;14.00;99.90;;;;;;5071273;28;20892;-72
2022/10/23 06:46:03;;;;;;;9.57;8.67;;;14.20;99.90;;;;;;5070858;28;20446;-74
2022/10/23 06:48:30;;;;;;;8.10;7.40;;;14.10;99.90;;;;;;5071469;28;20412;-72
2022/10/23 06:50:56;;;;;;;10.17;8.40;;;14.30;99.90;;;;;;5071331;28;20424;-74
2022/10/23 06:53:23;;;;;;;8.87;7.00;;;14.70;99.90;;;;;;5070916;28;20488;-72
2022/10/23 06:55:50;;;;;;;9.20;7.77;;;14.90;99.90;;;;;;5074780;28;20408;-72
2022/10/23 06:58:16;;;;;;;9.00;7.30;;;15.20;99.90;;;;;;5090016;28;20458;-72
2022/10/23 07:00:43;;;;;;;8.80;7.67;;;15.60;99.90;;;;;;5095172;28;20472;-71
2022/10/23 07:03:09;;;;;;;6.70;6.20;;;15.80;99.90;;;;;;5076521;28;20413;-72
2022/10/23 07:05:35;;;;;;;9.20;8.40;;;16.00;99.90;;;;;;5095056;28;20431;-72
2022/10/23 07:08:03;;;;;;;10.03;9.10;;;16.10;99.90;;;;;;5094298;28;20791;-74
2022/10/23 07:10:28;;;;;;;12.70;8.23;;;16.20;99.90;;;;;;5094976;28;20408;-72
2022/10/23 07:12:59;;;;;;;7.70;7.10;;;16.10;99.90;;;;;;5095236;28;20409;-72
2022/10/23 07:15:26;;;;;;;9.27;8.30;;;15.90;99.90;;;;;;5076616;28;20162;-71
2022/10/23 07:17:52;;;;;;;7.70;7.10;;;15.90;99.90;;;;;;5094786;28;20512;-72
2022/10/23 07:20:18;;;;;;;6.93;6.33;;;15.80;99.90;;;;;;5093951;28;20491;-72
2022/10/23 07:22:49;;;;;;;8.07;7.17;;;16.00;99.90;;;;;;5094823;28;20885;-72
2022/10/23 07:25:14;;;;;;;8.33;7.60;;;16.50;99.90;;;;;;5075865;28;20180;-71
2022/10/23 07:27:40;;;;;;;11.23;9.67;;;16.90;99.90;;;;;;5094849;28;20411;-68
2022/10/23 07:30:07;;;;;;;12.60;9.40;;;17.10;99.90;;;;;;5093554;28;20176;-68
2022/10/23 07:32:32;;;;;;;10.13;9.20;;;17.00;99.90;;;;;;5094502;28;20399;-68
2022/10/23 07:34:58;;;;;;;9.63;8.60;;;16.90;99.90;;;;;;5094399;28;20539;-73
2022/10/23 07:37:24;;;;;;;10.10;9.20;;;16.70;99.90;;;;;;5093974;28;20165;-68
2022/10/23 07:39:50;;;;;;;9.30;8.50;;;16.50;99.90;;;;;;5094025;28;20454;-69
2022/10/23 07:42:15;;;;;;;8.53;7.63;;;16.40;99.90;;;;;;5093580;28;20180;-68
2022/10/23 07:44:41;;;;;;;9.60;8.50;;;16.20;99.90;;;;;;5094533;28;20179;-68
2022/10/23 07:47:07;;;;;;;8.90;8.10;;;16.10;99.90;;;;;;5093530;28;20266;-68
2022/10/23 07:49:33;;;;;;;8.67;7.87;;;16.00;99.90;;;;;;5094230;28;20179;-68
2022/10/23 07:51:58;;;;;;;8.30;7.60;;;15.90;99.90;;;;;;5090197;28;20747;-68
2022/10/23 07:54:24;;;;;;;9.67;8.67;;;15.80;99.90;;;;;;5073500;28;20183;-68
2022/10/23 07:56:50;;;;;;;9.13;8.23;;;15.70;99.90;;;;;;5073688;28;20187;-68
2022/10/23 07:59:15;;;;;;;8.93;8.20;;;15.70;99.90;;;;;;5072937;28;20238;-68
2022/10/23 08:01:42;;;;;;;7.30;6.70;;;15.60;99.90;;;;;;5073840;28;20271;-67
2022/10/23 08:04:09;;;;;;;9.20;8.60;;;15.50;99.90;;;;;;5072988;28;20176;-68
2022/10/23 08:06:35;;;;;;;8.50;7.87;;;15.50;99.90;;;;;;5073364;28;20406;-68
2022/10/23 08:09:01;;;;;;;8.77;8.10;;;15.50;99.90;;;;;;5005115;28;20429;-72
2022/10/23 08:11:29;;;;;;;9.17;8.37;;;15.50;99.90;;;;;;5073056;28;20730;-67
2022/10/23 08:13:56;;;;;;;7.70;7.00;;;15.60;99.90;;;;;;5073535;28;20313;-67
2022/10/23 08:16:23;;;;;;;6.70;6.10;;;15.50;99.90;;;;;;5072408;28;20485;-68
2022/10/23 08:18:49;;;;;;;6.40;6.00;;;15.60;99.90;;;;;;5073396;28;20445;-68
2022/10/23 08:21:16;;;;;;;5.87;5.57;;;15.70;99.90;;;;;;5072314;28;20429;-68
2022/10/23 08:23:43;;;;;;;5.53;5.00;;;15.70;99.90;;;;;;5073084;28;20459;-68
2022/10/23 08:26:10;;;;;;;5.77;5.33;;;15.80;99.90;;;;;;5072471;28;20749;-68
2022/10/23 08:28:36;;;;;;;5.93;5.33;;;15.90;99.90;;;;;;5073168;28;20408;-67
2022/10/23 08:31:16;;;;;;;6.10;5.70;;;16.00;99.90;;;;;;5055192;28;20768;-73
2022/10/23 08:33:42;;;;;;;5.83;5.33;;;16.10;99.90;;;;;;5073203;28;20419;-67
2022/10/23 08:36:22;;;;;;;5.80;5.40;;;16.30;99.90;;;;;;5072270;28;20504;-68
2022/10/23 08:38:55;;;;;;;4.43;4.23;;;16.40;99.90;;;;;;5072938;28;20218;-68
2022/10/23 08:41:37;;;;;;;4.60;4.40;;;16.60;99.90;;;;;;5071989;28;20740;-68
2022/10/23 08:44:18;;;;;;;4.87;4.17;;;16.70;99.90;;;;;;5054753;28;20494;-73
2022/10/23 08:46:58;;;;;;;5.97;5.40;;;16.80;99.90;;;;;;5072678;28;20484;-68
2022/10/23 08:49:46;;;;;;;4.37;4.10;;;16.90;99.90;;;;;;5071864;28;20411;-67
2022/10/23 08:52:28;;;;;;;4.50;4.20;;;17.10;99.90;;;;;;5054088;28;20927;-68
2022/10/23 08:55:13;;;;;;;5.53;4.03;;;17.30;99.90;;;;;;5072717;28;20443;-68
2022/10/23 08:57:49;;;;;;;4.23;3.43;;;17.60;99.90;;;;;;5072862;28;20830;-68
2022/10/23 09:00:16;;;;;;;3.03;2.90;;;17.90;99.90;;;;;;5071835;28;20438;-68
2022/10/23 09:02:48;;;;;;;2.97;2.77;;;18.10;99.90;;;;;;5072868;28;20418;-68
2022/10/23 09:05:38;;;;;;;3.00;2.73;;;18.40;99.90;;;;;;5071803;28;20442;-68
2022/10/23 09:08:17;;;;;;;3.33;3.13;;;18.60;99.90;;;;;;5054668;28;20502;-70
2022/10/23 09:11:14;;;;;;;3.40;3.20;;;18.90;99.90;;;;;;5072452;28;20396;-68
2022/10/23 09:13:58;;;;;;;5.40;4.90;;;19.20;99.90;;;;;;4985255;28;20510;-71
2022/10/23 09:16:37;;;;;;;5.53;5.07;;;19.40;99.90;;;;;;5070772;28;21321;-72
2022/10/23 09:19:13;;;;;;;4.40;4.00;;;19.60;99.90;;;;;;5054388;28;20493;-71
2022/10/23 09:21:39;;;;;;;5.30;4.83;;;19.80;99.90;;;;;;5072284;28;20455;-71
2022/10/23 09:24:10;;;;;;;4.87;3.63;;;19.90;99.90;;;;;;5054302;28;20438;-72
2022/10/23 09:26:38;;;;;;;4.70;4.30;;;19.90;99.90;;;;;;5072421;28;20205;-71
2022/10/23 09:29:20;;;;;;;55.53;41.80;;;19.90;99.90;;;;;;5072244;28;20418;-71
2022/10/23 09:31:51;;;;;;;34.80;29.93;;;19.70;99.90;;;;;;5072508;28;20391;-71
2022/10/23 09:34:20;;;;;;;8.70;7.80;;;19.70;99.90;;;;;;5089685;28;20419;-71
2022/10/23 09:36:52;;;;;;;5.87;5.27;;;19.80;99.90;;;;;;5092147;28;20399;-71
2022/10/23 09:39:32;;;;;;;3.50;3.20;;;20.00;99.90;;;;;;5091591;28;20486;-71
2022/10/23 09:42:01;;;;;;;4.63;4.13;;;20.10;99.90;;;;;;5092443;28;20394;-71
2022/10/23 09:44:32;;;;;;;9.50;7.03;;;20.20;99.90;;;;;;5091869;28;20414;-71
2022/10/23 09:47:06;;;;;;;7.93;6.70;;;20.30;99.90;;;;;;5092503;28;20414;-71
2022/10/23 09:49:33;;;;;;;4.50;4.20;;;20.40;99.90;;;;;;5091493;28;20460;-71
2022/10/23 09:52:11;;;;;;;3.20;3.00;;;20.50;99.90;;;;;;5092295;28;20410;-71
2022/10/23 09:54:46;;;;;;;3.40;3.20;;;20.30;99.70;;;;;;5092428;28;20414;-71
2022/10/23 09:57:42;;;;;;;4.80;3.40;;;20.10;99.90;;;;;;5091307;28;20489;-72
2022/10/23 10:00:16;;;;;;;4.43;4.13;;;20.00;99.90;;;;;;5083018;28;20462;-74
2022/10/23 10:02:53;;;;;;;5.70;4.30;;;20.10;99.90;;;;;;5078342;28;20415;-71
2022/10/23 10:05:30;;;;;;;3.60;3.30;;;19.90;99.90;;;;;;5070952;28;20426;-71
2022/10/23 10:08:12;;;;;;;4.03;3.80;;;19.80;99.90;;;;;;5054018;28;20407;-71
2022/10/23 10:10:48;;;;;;;3.47;3.27;;;19.70;99.90;;;;;;5071958;28;20404;-71
2022/10/23 10:13:35;;;;;;;3.40;3.30;;;19.70;99.90;;;;;;5071092;28;20837;-71
2022/10/23 10:16:13;;;;;;;37.40;29.00;;;19.60;99.90;;;;;;5009485;28;20414;-71
2022/10/23 10:18:52;;;;;;;8.80;7.80;;;19.60;99.90;;;;;;5009699;28;20457;-71
2022/10/23 10:21:21;;;;;;;6.47;5.60;;;19.70;99.90;;;;;;5008921;28;20581;-72
2022/10/23 10:23:59;;;;;;;4.80;4.50;;;19.80;99.90;;;;;;5009464;28;20987;-71
2022/10/23 10:26:33;;;;;;;7.93;7.23;;;19.90;99.90;;;;;;5008928;28;20956;-69
2022/10/23 10:29:10;;;;;;;7.67;6.87;;;19.90;99.90;;;;;;5011909;28;20572;-71
2022/10/23 10:31:56;;;;;;;4.60;4.30;;;20.00;99.90;;;;;;5013468;28;20422;-72
2022/10/23 10:34:22;;;;;;;5.00;4.70;;;20.10;99.90;;;;;;5012550;28;20902;-72
2022/10/23 10:36:56;;;;;;;4.23;3.93;;;20.10;99.90;;;;;;5013308;28;20545;-72
2022/10/23 10:39:59;;;;;;;3.97;3.70;;;20.10;99.90;;;;;;5013237;28;20254;-73
2022/10/23 10:42:41;;;;;;;7.00;6.30;;;20.20;99.90;;;;;;5016155;28;20452;-72
2022/10/23 10:45:50;;;;;;;7.40;5.90;;;20.20;99.90;;;;;;5013078;28;20398;-72
2022/10/23 10:48:30;;;;;;;71.20;55.03;;;20.30;99.90;;;;;;5074124;28;20447;-72
2022/10/23 10:51:01;;;;;;;9.63;8.73;;;20.30;99.90;;;;;;5075191;28;20872;-72
2022/10/23 10:53:38;;;;;;;7.60;7.10;;;20.40;99.90;;;;;;5056261;28;20458;-72
2022/10/23 10:56:07;;;;;;;7.77;7.23;;;20.40;99.90;;;;;;5075096;28;20402;-72
2022/10/23 10:58:53;;;;;;;8.53;7.10;;;20.40;99.90;;;;;;5074433;28;21017;-72
2022/10/23 11:01:31;;;;;;;6.87;5.53;;;20.40;99.90;;;;;;5074272;28;20404;-72
2022/10/23 11:04:09;;;;;;;7.73;5.70;;;20.40;99.90;;;;;;5074884;28;20446;-72
2022/10/23 11:06:36;;;;;;;4.50;4.30;;;20.40;99.90;;;;;;5074046;28;20392;-72
2022/10/23 11:09:15;;;;;;;6.90;6.40;;;20.20;99.90;;;;;;5074760;28;20408;-72
2022/10/23 11:11:40;;;;;;;6.73;5.10;;;20.20;99.90;;;;;;5074970;28;20399;-71
2022/10/23 11:14:15;;;;;;;5.07;4.67;;;20.20;99.90;;;;;;5074722;28;20910;-72
2022/10/23 11:16:45;;;;;;;5.63;5.23;;;20.20;99.90;;;;;;5074235;28;20301;-72
2022/10/23 11:19:23;;;;;;;5.03;4.63;;;20.30;99.90;;;;;;5074392;28;20969;-74
2022/10/23 11:21:58;;;;;;;5.53;5.00;;;20.30;99.90;;;;;;5074645;28;20399;-72
2022/10/23 11:25:01;;;;;;;4.97;4.57;;;20.40;99.90;;;;;;5073492;28;20423;-72
2022/10/23 11:27:33;;;;;;;4.10;3.70;;;20.40;99.90;;;;;;5055661;28;20407;-71
2022/10/23 11:30:22;;;;;;;3.87;3.67;;;20.40;99.90;;;;;;5091163;28;20472;-72
2022/10/23 11:33:00;;;;;;;4.43;3.93;;;20.40;99.90;;;;;;5094536;28;20383;-71
2022/10/23 11:35:44;;;;;;;4.83;3.77;;;20.40;99.90;;;;;;5093769;28;20411;-71
2022/10/23 11:38:23;;;;;;;6.00;4.00;;;20.40;99.90;;;;;;5059818;28;20898;-72
2022/10/23 11:40:57;;;;;;;56.10;42.70;;;20.40;99.90;;;;;;5093769;28;20432;-71
2022/10/23 11:43:45;;;;;;;9.50;8.50;;;20.40;99.90;;;;;;5093610;28;20402;-72
2022/10/23 11:46:28;;;;;;;4.93;3.80;;;20.40;99.90;;;;;;5094223;28;20410;-72
2022/10/23 11:48:55;;;;;;;6.43;4.40;;;20.40;99.90;;;;;;5094468;28;20402;-71
2022/10/23 11:51:27;;;;;;;6.80;5.50;;;20.30;99.90;;;;;;5093215;28;20418;-71
2022/10/23 11:54:05;;;;;;;3.47;3.17;;;20.40;99.90;;;;;;5094192;28;20422;-71
2022/10/23 11:56:32;;;;;;;6.27;5.50;;;20.40;99.90;;;;;;5075061;28;20395;-71
2022/10/23 11:59:25;;;;;;;6.30;5.80;;;20.40;99.90;;;;;;5094129;28;20442;-72
2022/10/23 12:01:53;;;;;;;4.07;3.70;;;20.40;99.90;;;;;;5093612;28;20442;-71
2022/10/23 12:04:22;;;;;;;8.40;6.60;;;20.30;99.90;;;;;;5058538;28;20414;-73
2022/10/23 12:07:30;;;;;;;4.67;4.30;;;20.20;99.90;;;;;;5093790;28;20441;-71
2022/10/23 12:10:05;;;;;;;3.43;3.30;;;20.20;99.90;;;;;;5075935;28;20418;-71
2022/10/23 12:12:31;;;;;;;3.67;3.47;;;19.90;99.90;;;;;;5092801;28;20770;-71
2022/10/23 12:15:10;;;;;;;3.73;3.43;;;19.80;99.90;;;;;;5093759;28;20520;-71
2022/10/23 12:17:41;;;;;;;150.87;100.37;;;19.80;99.90;;;;;;5092345;28;20823;-71
2022/10/23 12:20:10;;;;;;;13.80;11.90;;;19.60;99.90;;;;;;5093326;28;20453;-71
2022/10/23 12:23:06;;;;;;;6.80;6.10;;;19.70;99.90;;;;;;5074429;28;20425;-71
2022/10/23 12:26:04;;;;;;;10.70;9.60;;;19.60;99.90;;;;;;5074732;28;20417;-71
2022/10/23 12:28:55;;;;;;;24.60;12.80;;;19.80;99.90;;;;;;5053927;28;20418;-72
2022/10/23 12:31:39;;;;;;;3.97;3.53;;;19.90;99.90;;;;;;5092568;28;20409;-72
2022/10/23 12:34:25;;;;;;;12.10;7.43;;;19.80;99.90;;;;;;5093358;28;20403;-72
2022/10/23 12:37:18;;;;;;;8.50;5.17;;;20.00;99.90;;;;;;5083328;28;20786;-72
2022/10/23 12:39:51;;;;;;;4.30;3.90;;;20.00;99.90;;;;;;5081090;28;20516;-71
2022/10/23 12:42:23;;;;;;;30.40;21.40;;;20.00;99.90;;;;;;5062510;28;20407;-73
2022/10/23 12:45:14;;;;;;;4.60;4.20;;;19.90;99.90;;;;;;5063302;28;20400;-71
2022/10/23 12:47:42;;;;;;;7.87;4.73;;;19.90;99.90;;;;;;5082294;28;20423;-72
2022/10/23 12:50:34;;;;;;;6.33;5.73;;;19.90;99.90;;;;;;5081484;28;20404;-71
2022/10/23 12:53:04;;;;;;;4.83;4.43;;;19.90;99.90;;;;;;5076665;28;20819;-73
2022/10/23 12:55:51;;;;;;;4.10;3.03;;;19.90;99.90;;;;;;5080291;28;20411;-72
2022/10/23 12:58:36;;;;;;;7.90;4.50;;;20.00;99.90;;;;;;5066794;28;20465;-73
2022/10/23 13:01:04;;;;;;;4.60;4.20;;;20.00;99.90;;;;;;5082738;28;20418;-72
2022/10/23 13:03:32;;;;;;;5.07;3.90;;;20.00;99.90;;;;;;5080807;28;20411;-72
2022/10/23 13:06:03;;;;;;;4.33;3.90;;;20.00;99.90;;;;;;5062782;28;20506;-73